Shinshinmaru — JD3332 — position and weather

sailwx.info

Track history (hours):
 
Tides and Currents Weather Stations Pressure Air Temp Water Temp Dewpoint Dewpoint Depression Visibility Wind Speed Wind Dir Waves Ship Positions

Shinshinmaru

Last reported at 2018-Feb-19 11:30 UTC. Time now 2018-Feb-19 11:51 UTC.
Position N 34°02' E 132°40'.

Length 74 m; draft 4.2 m.

Type: Tanker. MMSI: 431003616.

Date/timePositionNaut miles runAvg speedWind from/ knotsBaromVisibWave heightAir tempDewpointWater temp
2018-Feb-19 11:30N 34°02' E 132°40'812.4
2018-Feb-19 10:50N 33°57' E 132°32'512.6
2018-Feb-19 10:28N 33°54' E 132°28'612.4
2018-Feb-19 09:59N 33°50' E 132°22'711.9
2018-Feb-19 09:22N 33°49' E 132°13'411.4
2018-Feb-19 09:00N 33°48' E 132°08'611.3
2018-Feb-19 08:30N 33°45' E 132°02'711.9
2018-Feb-19 07:56N 33°46' E 131°54'512.2
2018-Feb-19 07:30N 33°47' E 131°48'612.4
2018-Feb-19 07:00N 33°49' E 131°41'612.4
2018-Feb-19 06:30N 33°50' E 131°33'612.3
2018-Feb-19 06:00N 33°51' E 131°26'612.4
2018-Feb-19 05:30N 33°52' E 131°19'612.6
2018-Feb-19 05:01N 33°53' E 131°11'612.4
2018-Feb-19 04:30N 33°56' E 131°05'510.8
2018-Feb-19 04:00N 33°58' E 130°59'5 9.2
2018-Feb-19 03:30N 33°55' E 130°56'2 4.5
2018-Feb-19 03:00N 33°56' E 130°54'0 0.0
2018-Feb-19 02:30N 33°56' E 130°54'0 0.0
2018-Feb-19 02:00N 33°56' E 130°54'0 0.0
2018-Feb-19 01:30N 33°56' E 130°54'0 0.0
2018-Feb-19 01:00N 33°56' E 130°54'0 0.0
2018-Feb-19 00:30N 33°56' E 130°54'0 0.0
2018-Feb-19 00:00N 33°56' E 130°54'0 0.0
2018-Feb-18 23:30N 33°56' E 130°54'0 0.0
2018-Feb-18 23:00N 33°56' E 130°54'0 0.0
2018-Feb-18 22:31N 33°56' E 130°54'0 0.8
2018-Feb-18 22:00N 33°56' E 130°53'2 4.1
2018-Feb-18 21:30N 33°55' E 130°56'4 7.7
2018-Feb-18 21:00N 33°58' E 130°59'510.1
2018-Feb-18 20:30N 33°57' E 131°05'611.7
2018-Feb-18 20:00N 33°54' E 131°11'510.9
2018-Feb-18 19:30N 33°52' E 131°17'612.0
2018-Feb-18 19:00N 33°51' E 131°24'612.1
2018-Feb-18 18:30N 33°50' E 131°31'611.7
2018-Feb-18 18:00N 33°48' E 131°38'611.0
2018-Feb-18 17:30N 33°47' E 131°45'611.1
2018-Feb-18 16:57N 33°46' E 131°52'811.2
2018-Feb-18 16:14N 33°46' E 132°02'311.8
2018-Feb-18 16:00N 33°46' E 132°05'612.3
2018-Feb-18 15:30N 33°49' E 132°11'611.7
2018-Feb-18 14:57N 33°50' E 132°19'811.1
2018-Feb-18 14:17N 33°53' E 132°27'511.0
2018-Feb-18 13:47N 33°57' E 132°32'310.1
2018-Feb-18 13:27N 33°59' E 132°35'510.9
2018-Feb-18 13:00N 34°02' E 132°39'74 2.8
2018-Feb-17 10:44N 34°27' E 134°04'1412.5
2018-Feb-17 09:34N 34°22' E 134°20'111.6
2018-Feb-17 09:29N 34°22' E 134°21'611.6
2018-Feb-17 08:57N 34°19' E 134°28'611.5
2018-Feb-17 08:28N 34°17' E 134°34'611.2
2018-Feb-17 07:58N 34°14' E 134°40'611.3
2018-Feb-17 07:27N 34°09' E 134°44'511.2
2018-Feb-17 07:00N 34°05' E 134°48'611.2
2018-Feb-17 06:30N 34°01' E 134°52'510.9
2018-Feb-17 06:00N 33°57' E 134°57'510.9
2018-Feb-17 05:30N 33°53' E 135°01'610.5
2018-Feb-17 04:57N 33°50' E 135°07'16110.0
2018-Feb-16 12:54N 34°33' E 138°14'1511.1
2018-Feb-16 11:31N 34°34' E 138°33'311.2
2018-Feb-16 11:17N 34°34' E 138°36'610.6
2018-Feb-16 10:40N 34°35' E 138°44'411.2
2018-Feb-16 10:19N 34°35' E 138°49'511.4
2018-Feb-16 09:53N 34°36' E 138°54'411.6
2018-Feb-16 09:30N 34°37' E 138°59'612.1
2018-Feb-16 08:58N 34°42' E 139°05'611.1
2018-Feb-16 08:28N 34°45' E 139°11'610.8
2018-Feb-16 07:54N 34°49' E 139°16'16 9.7
2018-Feb-16 06:16N 34°58' E 139°32'510.6
2018-Feb-16 05:49N 35°02' E 139°36'411.5
2018-Feb-16 05:29N 35°04' E 139°40'611.9
2018-Feb-16 05:00N 35°08' E 139°45'611.7
2018-Feb-16 04:30N 35°14' E 139°46'611.2
2018-Feb-16 04:00N 35°19' E 139°43'511.0
2018-Feb-16 03:31N 35°24' E 139°43'5 9.5
2018-Feb-16 03:00N 35°29' E 139°43'0 0.3
2018-Feb-16 02:30N 35°29' E 139°43'0 0.0
2018-Feb-16 02:00N 35°29' E 139°43'0 0.0
2018-Feb-16 01:30N 35°29' E 139°43'0 0.0
2018-Feb-16 01:00N 35°29' E 139°43'0 0.0
2018-Feb-16 00:30N 35°29' E 139°43'0 0.0
2018-Feb-16 00:00N 35°29' E 139°43'0 0.0
2018-Feb-15 23:30N 35°29' E 139°43'1 2.1
2018-Feb-15 23:00N 35°30' E 139°44'510.7
2018-Feb-15 22:30N 35°31' E 139°50'0 0.2
2018-Feb-15 22:00N 35°31' E 139°50'0 0.0
2018-Feb-15 21:28N 35°31' E 139°50'0 0.0
2018-Feb-15 21:00N 35°31' E 139°50'0 0.0
2018-Feb-15 20:29N 35°31' E 139°50'0 0.0
2018-Feb-15 20:00N 35°31' E 139°50'0 0.0
2018-Feb-15 19:29N 35°31' E 139°50'0 0.0
2018-Feb-15 19:00N 35°31' E 139°50'0 0.0
2018-Feb-15 18:30N 35°31' E 139°50'0 0.0
2018-Feb-15 18:00N 35°31' E 139°50'0 0.0
2018-Feb-15 17:30N 35°31' E 139°50'0 0.0
2018-Feb-15 17:00N 35°31' E 139°50'0 0.0
2018-Feb-15 16:30N 35°31' E 139°50'0 0.0
2018-Feb-15 15:59N 35°31' E 139°50'0 0.1
2018-Feb-15 15:30N 35°31' E 139°50'0 0.0
2018-Feb-15 15:00N 35°31' E 139°50'0 0.0
2018-Feb-15 14:30N 35°31' E 139°50'0 0.0
2018-Feb-15 14:00N 35°31' E 139°50'0 0.0
2018-Feb-15 13:30N 35°31' E 139°50'0 0.0
2018-Feb-15 12:58N 35°31' E 139°50'0 0.0
2018-Feb-15 12:29N 35°31' E 139°50'0 0.0
2018-Feb-15 12:00N 35°31' E 139°50'0 0.0
2018-Feb-15 11:30N 35°31' E 139°50'0 0.0
2018-Feb-15 11:00N 35°31' E 139°50'0 0.0
2018-Feb-15 10:30N 35°31' E 139°50'0 0.0
2018-Feb-15 10:01N 35°31' E 139°50'0 0.0
2018-Feb-15 09:26N 35°31' E 139°50'0 0.0
2018-Feb-15 08:57N 35°31' E 139°50'0 0.0
2018-Feb-15 08:30N 35°31' E 139°50'0 0.0
2018-Feb-15 08:00N 35°31' E 139°50'0 0.0
2018-Feb-15 07:30N 35°31' E 139°50'0 0.0
2018-Feb-15 06:59N 35°31' E 139°50'0 0.0
2018-Feb-15 06:30N 35°31' E 139°50'0 0.1
2018-Feb-15 06:00N 35°31' E 139°50'510.3
2018-Feb-15 05:30N 35°32' E 139°57'612.1
2018-Feb-15 05:00N 35°33' E 140°04'2 2.9
2018-Feb-15 04:28N 35°32' E 140°06'0 0.0
2018-Feb-15 03:57N 35°32' E 140°06'0 0.0
2018-Feb-15 03:30N 35°32' E 140°06'0 0.0
2018-Feb-15 03:00N 35°32' E 140°06'0 0.0
2018-Feb-15 02:29N 35°32' E 140°06'0 0.0
2018-Feb-15 02:00N 35°32' E 140°06'0 0.0
2018-Feb-15 01:27N 35°32' E 140°06'0 0.0
2018-Feb-15 00:59N 35°32' E 140°06'0 0.0
2018-Feb-15 00:30N 35°32' E 140°06'0 0.0
2018-Feb-14 23:59N 35°32' E 140°06'0 0.0
2018-Feb-14 23:29N 35°32' E 140°06'2 5.3
2018-Feb-14 23:00N 35°34' E 140°03'2 3.3
2018-Feb-14 22:30N 35°33' E 140°01'0 0.0
2018-Feb-14 22:00N 35°33' E 140°01'0 0.1
2018-Feb-14 21:30N 35°33' E 140°01'0 0.0
2018-Feb-14 21:00N 35°33' E 140°01'0 0.0
2018-Feb-14 20:30N 35°33' E 140°01'0 0.0
2018-Feb-14 20:00N 35°33' E 140°01'0 0.0
2018-Feb-14 19:30N 35°33' E 140°01'0 0.0
2018-Feb-14 19:00N 35°33' E 140°01'0 0.0
2018-Feb-14 18:30N 35°33' E 140°01'0 0.0
2018-Feb-14 18:00N 35°33' E 140°01'0 0.0
2018-Feb-14 17:30N 35°33' E 140°01'0 0.0
2018-Feb-14 17:00N 35°33' E 140°01'0 0.0
2018-Feb-14 16:30N 35°33' E 140°01'0 0.0
2018-Feb-14 16:00N 35°33' E 140°01'0 0.0
2018-Feb-14 15:30N 35°33' E 140°01'0 0.0
2018-Feb-14 15:00N 35°33' E 140°01'0 0.0
2018-Feb-14 14:30N 35°33' E 140°01'0 0.0
2018-Feb-14 14:00N 35°33' E 140°01'0 0.0
2018-Feb-14 13:30N 35°33' E 140°01'0 0.0
2018-Feb-14 13:00N 35°33' E 140°01'0 0.0
2018-Feb-14 12:30N 35°33' E 140°01'0 0.0
2018-Feb-14 12:00N 35°33' E 140°01'0 0.0
2018-Feb-14 11:30N 35°33' E 140°01'0 0.0
2018-Feb-14 11:00N 35°33' E 140°01'0 0.0
2018-Feb-14 10:30N 35°33' E 140°01'0 0.0
2018-Feb-14 10:00N 35°33' E 140°01'0 0.0
2018-Feb-14 09:30N 35°33' E 140°01'0 0.0
2018-Feb-14 09:00N 35°33' E 140°01'0 0.0
2018-Feb-14 08:29N 35°33' E 140°01'0 0.0
2018-Feb-14 08:00N 35°33' E 140°01'0 0.0
2018-Feb-14 07:30N 35°33' E 140°01'0 0.0
2018-Feb-14 07:00N 35°33' E 140°01'0 0.0
2018-Feb-14 06:30N 35°33' E 140°01'0 0.0
2018-Feb-14 06:00N 35°33' E 140°01'0 0.0
2018-Feb-14 05:30N 35°33' E 140°01'0 0.0
2018-Feb-14 05:00N 35°33' E 140°01'0 0.0
2018-Feb-14 04:30N 35°33' E 140°01'2 4.2
2018-Feb-14 04:00N 35°34' E 140°03'3 6.3
2018-Feb-14 03:30N 35°35' E 140°07'0 0.0
2018-Feb-14 03:00N 35°35' E 140°07'0 0.0
2018-Feb-14 02:30N 35°35' E 140°07'0 0.0
2018-Feb-14 02:00N 35°35' E 140°07'0 0.0
2018-Feb-14 01:30N 35°35' E 140°07'0 0.0
2018-Feb-14 01:00N 35°35' E 140°07'0 0.0
2018-Feb-14 00:30N 35°35' E 140°07'0 0.0
2018-Feb-13 23:59N 35°35' E 140°07'0 0.0
2018-Feb-13 23:30N 35°35' E 140°07'0 0.0
2018-Feb-13 23:00N 35°35' E 140°07'1 1.6
2018-Feb-13 22:30N 35°35' E 140°06'3 6.4
2018-Feb-13 22:00N 35°34' E 140°02'2 3.2
2018-Feb-13 21:30N 35°33' E 140°01'0 0.0
2018-Feb-13 21:00N 35°33' E 140°01'0 0.0
2018-Feb-13 20:29N 35°33' E 140°01'0 0.0
2018-Feb-13 20:00N 35°33' E 140°01'0 0.0
2018-Feb-13 19:30N 35°33' E 140°01'0 0.1
2018-Feb-13 19:00N 35°33' E 140°01'0 0.0
2018-Feb-13 18:30N 35°33' E 140°01'0 0.0
2018-Feb-13 18:00N 35°33' E 140°01'0 0.0
2018-Feb-13 17:30N 35°33' E 140°01'0 0.0
2018-Feb-13 16:58N 35°33' E 140°01'0 0.0
2018-Feb-13 16:30N 35°33' E 140°01'0 0.0
2018-Feb-13 16:00N 35°33' E 140°01'0 0.0
2018-Feb-13 15:30N 35°33' E 140°01'0 0.0
2018-Feb-13 15:00N 35°33' E 140°01'0 0.0
2018-Feb-13 14:30N 35°33' E 140°01'0 0.0
2018-Feb-13 14:00N 35°33' E 140°01'0 0.1
2018-Feb-13 13:30N 35°33' E 140°01'0 0.1
2018-Feb-13 12:59N 35°33' E 140°01'0 0.1
2018-Feb-13 12:30N 35°33' E 140°01'0 0.1
2018-Feb-13 12:00N 35°33' E 140°01'0 0.1
2018-Feb-13 11:30N 35°33' E 140°01'0 0.0
2018-Feb-13 10:58N 35°33' E 140°01'0 0.0
2018-Feb-13 10:30N 35°33' E 140°01'0 0.0
2018-Feb-13 10:00N 35°33' E 140°01'0 0.0
2018-Feb-13 09:30N 35°33' E 140°01'0 0.2
2018-Feb-13 09:00N 35°33' E 140°01'0 0.1
2018-Feb-13 08:30N 35°33' E 140°01'0 0.0
2018-Feb-13 08:00N 35°33' E 140°01'5 9.5
2018-Feb-13 07:30N 35°35' E 140°06'1 1.0
2018-Feb-13 07:00N 35°35' E 140°07'0 0.0
2018-Feb-13 06:30N 35°35' E 140°07'0 0.0
2018-Feb-13 06:00N 35°35' E 140°07'0 0.0
2018-Feb-13 05:29N 35°35' E 140°07'0 0.0
2018-Feb-13 05:00N 35°35' E 140°07'2 3.5
2018-Feb-13 04:31N 35°35' E 140°05'510.6
2018-Feb-13 04:00N 35°34' E 139°58'611.4
2018-Feb-13 03:30N 35°31' E 139°52'611.5
2018-Feb-13 03:00N 35°30' E 139°45'2 4.1
2018-Feb-13 02:30N 35°29' E 139°43'0 0.0
2018-Feb-13 02:00N 35°29' E 139°43'0 0.0
2018-Feb-13 01:30N 35°29' E 139°43'0 0.0
2018-Feb-13 01:00N 35°29' E 139°43'0 0.0
2018-Feb-13 00:30N 35°29' E 139°43'0 0.0
2018-Feb-13 00:01N 35°29' E 139°43'0 0.0
2018-Feb-12 23:30N 35°29' E 139°43'2 3.1
2018-Feb-12 23:00N 35°30' E 139°45'510.0
2018-Feb-12 22:30N 35°31' E 139°51'0 0.1
2018-Feb-12 22:00N 35°31' E 139°51'0 0.1
2018-Feb-12 21:30N 35°31' E 139°51'0 0.0
2018-Feb-12 21:00N 35°31' E 139°51'0 0.1
2018-Feb-12 20:30N 35°31' E 139°51'0 0.0
2018-Feb-12 19:59N 35°31' E 139°51'0 0.1
2018-Feb-12 19:30N 35°31' E 139°51'0 0.0
2018-Feb-12 19:00N 35°31' E 139°51'0 0.0
2018-Feb-12 18:30N 35°31' E 139°51'0 0.0
2018-Feb-12 18:00N 35°31' E 139°51'0 0.0
2018-Feb-12 17:30N 35°31' E 139°51'0 0.0
2018-Feb-12 16:59N 35°31' E 139°51'0 0.0
2018-Feb-12 16:27N 35°31' E 139°51'0 0.0
2018-Feb-12 15:59N 35°31' E 139°51'0 0.0
2018-Feb-12 15:28N 35°31' E 139°51'0 0.0
2018-Feb-12 15:00N 35°31' E 139°51'0 0.0
2018-Feb-12 14:30N 35°31' E 139°51'0 0.0
2018-Feb-12 14:00N 35°31' E 139°51'0 0.0
2018-Feb-12 13:29N 35°31' E 139°51'0 0.0
2018-Feb-12 13:00N 35°31' E 139°51'0 0.0
2018-Feb-12 12:28N 35°31' E 139°51'0 0.1
2018-Feb-12 12:00N 35°31' E 139°51'0 0.0
2018-Feb-12 11:30N 35°31' E 139°51'0 0.0
2018-Feb-12 11:00N 35°31' E 139°51'0 0.0
2018-Feb-12 10:30N 35°31' E 139°51'0 0.0
2018-Feb-12 10:00N 35°31' E 139°51'0 0.0
2018-Feb-12 09:30N 35°31' E 139°51'0 0.0
2018-Feb-12 08:59N 35°31' E 139°51'0 0.0
2018-Feb-12 08:30N 35°31' E 139°51'0 0.0
2018-Feb-12 08:00N 35°31' E 139°51'0 0.0
2018-Feb-12 07:30N 35°31' E 139°51'0 0.0
2018-Feb-12 07:00N 35°31' E 139°51'0 0.0
2018-Feb-12 06:30N 35°31' E 139°51'0 0.0
2018-Feb-12 06:00N 35°31' E 139°51'0 0.0
2018-Feb-12 05:30N 35°31' E 139°51'0 0.0
2018-Feb-12 05:00N 35°31' E 139°51'0 0.0
2018-Feb-12 04:29N 35°31' E 139°51'0 0.0
2018-Feb-12 03:59N 35°31' E 139°51'0 0.0
2018-Feb-12 03:30N 35°31' E 139°51'0 0.0
2018-Feb-12 02:59N 35°31' E 139°51'0 0.0
2018-Feb-12 02:30N 35°31' E 139°51'0 0.0
2018-Feb-12 02:00N 35°31' E 139°51'0 0.0
2018-Feb-12 01:30N 35°31' E 139°51'0 0.0
2018-Feb-12 00:58N 35°31' E 139°51'0 0.0
2018-Feb-12 00:30N 35°31' E 139°51'0 0.0
2018-Feb-12 00:00N 35°31' E 139°51'0 0.0
2018-Feb-11 23:29N 35°31' E 139°51'0 0.0
2018-Feb-11 23:00N 35°31' E 139°51'0 0.0
2018-Feb-11 22:30N 35°31' E 139°51'0 0.0
2018-Feb-11 22:00N 35°31' E 139°51'0 0.0
2018-Feb-11 21:24N 35°31' E 139°51'0 0.1
2018-Feb-11 21:00N 35°31' E 139°51'0 0.1
2018-Feb-11 20:30N 35°31' E 139°51'0 0.1
2018-Feb-11 20:00N 35°31' E 139°51'0 0.0
2018-Feb-11 19:30N 35°31' E 139°51'0 0.0
2018-Feb-11 19:00N 35°31' E 139°51'0 0.0
2018-Feb-11 18:30N 35°31' E 139°51'0 0.0
2018-Feb-11 17:57N 35°31' E 139°51'0 0.0
2018-Feb-11 17:30N 35°31' E 139°51'0 0.0
2018-Feb-11 17:01N 35°31' E 139°51'0 0.0
2018-Feb-11 16:30N 35°31' E 139°51'0 0.0
2018-Feb-11 15:56N 35°31' E 139°51'0 0.0
2018-Feb-11 15:30N 35°31' E 139°51'0 0.0
2018-Feb-11 15:00N 35°31' E 139°51'0 0.0
2018-Feb-11 14:30N 35°31' E 139°51'0 0.0
2018-Feb-11 13:58N 35°31' E 139°51'0 0.0
2018-Feb-11 13:23N 35°31' E 139°51'0 0.0
2018-Feb-11 12:57N 35°31' E 139°51'0 0.0
2018-Feb-11 12:25N 35°31' E 139°51'0 0.0
2018-Feb-11 11:54N 35°31' E 139°51'0 0.0
2018-Feb-11 11:30N 35°31' E 139°51'0 0.0
2018-Feb-11 10:59N 35°31' E 139°51'0 0.0
2018-Feb-11 10:27N 35°31' E 139°51'0 0.0
2018-Feb-11 10:00N 35°31' E 139°51'0 0.0
2018-Feb-11 09:30N 35°31' E 139°51'0 0.0
2018-Feb-11 09:00N 35°31' E 139°51'0 0.2
2018-Feb-11 08:30N 35°31' E 139°51'0 0.0
2018-Feb-11 08:01N 35°31' E 139°51'0 0.0
2018-Feb-11 07:30N 35°31' E 139°51'0 0.0
2018-Feb-11 07:00N 35°31' E 139°51'0 0.0
2018-Feb-11 06:30N 35°31' E 139°51'0 0.8
2018-Feb-11 06:00N 35°31' E 139°51'611.7
2018-Feb-11 05:30N 35°32' E 139°58'611.1
2018-Feb-11 05:00N 35°33' E 140°05'1 1.3
2018-Feb-11 04:28N 35°32' E 140°06'0 0.0
2018-Feb-11 01:36N 35°32' E 140°06'0 0.0
2018-Feb-11 01:30N 35°32' E 140°06'0 0.3
2018-Feb-11 01:00N 35°32' E 140°05'3 5.5
2018-Feb-11 00:29N 35°34' E 140°02'1 3.0
2018-Feb-11 00:00N 35°33' E 140°01'0 0.0
2018-Feb-10 23:30N 35°33' E 140°01'0 0.0
2018-Feb-10 23:00N 35°33' E 140°01'0 0.0
2018-Feb-10 22:30N 35°33' E 140°01'0 0.0
2018-Feb-10 22:00N 35°33' E 140°01'0 0.0
2018-Feb-10 21:30N 35°33' E 140°01'0 0.0
2018-Feb-10 21:00N 35°33' E 140°01'0 0.0
2018-Feb-10 20:30N 35°33' E 140°01'0 0.0
2018-Feb-10 20:00N 35°33' E 140°01'0 0.0
2018-Feb-10 19:30N 35°33' E 140°01'0 0.1
2018-Feb-10 19:00N 35°33' E 140°01'0 0.1
2018-Feb-10 18:30N 35°33' E 140°01'0 0.1
2018-Feb-10 18:00N 35°33' E 140°01'0 0.0
2018-Feb-10 17:30N 35°33' E 140°01'0 0.0
2018-Feb-10 17:00N 35°33' E 140°01'0 0.0
2018-Feb-10 16:30N 35°33' E 140°01'0 0.0
2018-Feb-10 16:00N 35°33' E 140°01'0 0.0
2018-Feb-10 15:30N 35°33' E 140°01'0 0.0
2018-Feb-10 15:00N 35°33' E 140°01'0 0.0
2018-Feb-10 14:30N 35°33' E 140°01'0 0.0
2018-Feb-10 14:00N 35°33' E 140°01'0 0.0
2018-Feb-10 13:30N 35°33' E 140°01'0 0.0
2018-Feb-10 13:00N 35°33' E 140°01'0 0.0
2018-Feb-10 12:30N 35°33' E 140°01'0 0.0
2018-Feb-10 12:00N 35°33' E 140°01'0 0.0
2018-Feb-10 11:30N 35°33' E 140°01'0 0.0
2018-Feb-10 11:00N 35°33' E 140°01'0 0.0
2018-Feb-10 10:30N 35°33' E 140°01'0 0.0
2018-Feb-10 10:00N 35°33' E 140°01'0 0.0
2018-Feb-10 09:30N 35°33' E 140°01'0 0.0
2018-Feb-10 08:59N 35°33' E 140°01'0 0.0
2018-Feb-10 08:30N 35°33' E 140°01'1 2.5
2018-Feb-10 08:00N 35°34' E 140°02'4 8.1
2018-Feb-10 07:30N 35°35' E 140°07'0 0.0
2018-Feb-10 07:00N 35°35' E 140°07'0 0.0
2018-Feb-10 06:30N 35°35' E 140°07'0 0.0
2018-Feb-10 06:00N 35°35' E 140°07'0 0.0
2018-Feb-10 05:30N 35°35' E 140°07'0 0.0
2018-Feb-10 04:59N 35°35' E 140°07'0 0.0
2018-Feb-10 04:30N 35°35' E 140°07'2 4.1
2018-Feb-10 04:00N 35°35' E 140°04'3 5.8
2018-Feb-10 03:30N 35°32' E 140°05'0 0.0
2018-Feb-10 02:12N 35°32' E 140°06'0 0.0
2018-Feb-10 01:44N 35°32' E 140°06'0 0.0
2018-Feb-10 01:26N 35°32' E 140°06'0 0.0
2018-Feb-10 00:40N 35°32' E 140°06'0 0.0
2018-Feb-09 23:41N 35°32' E 140°06'0 0.0
2018-Feb-09 23:30N 35°32' E 140°06'0 0.0
2018-Feb-09 22:48N 35°32' E 140°06'0 0.1
2018-Feb-09 22:19N 35°32' E 140°05'2 6.8
2018-Feb-09 22:00N 35°33' E 140°03'2 3.9
2018-Feb-09 21:30N 35°33' E 140°01'0 0.0
2018-Feb-09 17:30N 35°33' E 140°01'0 0.0
2018-Feb-09 16:30N 35°33' E 140°01'0 0.0
2018-Feb-09 15:30N 35°33' E 140°01'0 0.0
2018-Feb-09 14:30N 35°33' E 140°01'0 0.0
2018-Feb-09 14:00N 35°33' E 140°01'0 0.0
2018-Feb-09 13:30N 35°33' E 140°01'0 0.0
2018-Feb-09 13:00N 35°33' E 140°01'0 0.0
2018-Feb-09 12:30N 35°33' E 140°01'0 0.0
2018-Feb-09 11:30N 35°33' E 140°01'  
Track history (hours):
 
Tides and Currents Weather Stations Pressure Air Temp Water Temp Dewpoint Dewpoint Depression Visibility Wind Speed Wind Dir Waves Ship Positions

Shinshinmaru

Last reported at 2018-Feb-19 11:30 UTC. Time now 2018-Feb-19 11:51 UTC.
Position N 34°02' E 132°40'.

Length 74 m; draft 4.2 m.

Type: Tanker. MMSI: 431003616.

Date/timePositionNaut miles runAvg speedWind from/ knotsBaromVisibWave heightAir tempDewpointWater temp
2018-Feb-19 11:30N 34°02' E 132°40'812.4
2018-Feb-19 10:50N 33°57' E 132°32'512.6
2018-Feb-19 10:28N 33°54' E 132°28'612.4
2018-Feb-19 09:59N 33°50' E 132°22'711.9
2018-Feb-19 09:22N 33°49' E 132°13'411.4
2018-Feb-19 09:00N 33°48' E 132°08'611.3
2018-Feb-19 08:30N 33°45' E 132°02'711.9
2018-Feb-19 07:56N 33°46' E 131°54'512.2
2018-Feb-19 07:30N 33°47' E 131°48'612.4
2018-Feb-19 07:00N 33°49' E 131°41'612.4
2018-Feb-19 06:30N 33°50' E 131°33'612.3
2018-Feb-19 06:00N 33°51' E 131°26'612.4
2018-Feb-19 05:30N 33°52' E 131°19'612.6
2018-Feb-19 05:01N 33°53' E 131°11'612.4
2018-Feb-19 04:30N 33°56' E 131°05'510.8
2018-Feb-19 04:00N 33°58' E 130°59'5 9.2
2018-Feb-19 03:30N 33°55' E 130°56'2 4.5
2018-Feb-19 03:00N 33°56' E 130°54'0 0.0
2018-Feb-19 02:30N 33°56' E 130°54'0 0.0
2018-Feb-19 02:00N 33°56' E 130°54'0 0.0
2018-Feb-19 01:30N 33°56' E 130°54'0 0.0
2018-Feb-19 01:00N 33°56' E 130°54'0 0.0
2018-Feb-19 00:30N 33°56' E 130°54'0 0.0
2018-Feb-19 00:00N 33°56' E 130°54'0 0.0
2018-Feb-18 23:30N 33°56' E 130°54'0 0.0
2018-Feb-18 23:00N 33°56' E 130°54'0 0.0
2018-Feb-18 22:31N 33°56' E 130°54'0 0.8
2018-Feb-18 22:00N 33°56' E 130°53'2 4.1
2018-Feb-18 21:30N 33°55' E 130°56'4 7.7
2018-Feb-18 21:00N 33°58' E 130°59'510.1
2018-Feb-18 20:30N 33°57' E 131°05'611.7
2018-Feb-18 20:00N 33°54' E 131°11'510.9
2018-Feb-18 19:30N 33°52' E 131°17'612.0
2018-Feb-18 19:00N 33°51' E 131°24'612.1
2018-Feb-18 18:30N 33°50' E 131°31'611.7
2018-Feb-18 18:00N 33°48' E 131°38'611.0
2018-Feb-18 17:30N 33°47' E 131°45'611.1
2018-Feb-18 16:57N 33°46' E 131°52'811.2
2018-Feb-18 16:14N 33°46' E 132°02'311.8
2018-Feb-18 16:00N 33°46' E 132°05'612.3
2018-Feb-18 15:30N 33°49' E 132°11'611.7
2018-Feb-18 14:57N 33°50' E 132°19'811.1
2018-Feb-18 14:17N 33°53' E 132°27'511.0
2018-Feb-18 13:47N 33°57' E 132°32'310.1
2018-Feb-18 13:27N 33°59' E 132°35'510.9
2018-Feb-18 13:00N 34°02' E 132°39'74 2.8
2018-Feb-17 10:44N 34°27' E 134°04'1412.5
2018-Feb-17 09:34N 34°22' E 134°20'111.6
2018-Feb-17 09:29N 34°22' E 134°21'611.6
2018-Feb-17 08:57N 34°19' E 134°28'611.5
2018-Feb-17 08:28N 34°17' E 134°34'611.2
2018-Feb-17 07:58N 34°14' E 134°40'611.3
2018-Feb-17 07:27N 34°09' E 134°44'511.2
2018-Feb-17 07:00N 34°05' E 134°48'611.2
2018-Feb-17 06:30N 34°01' E 134°52'510.9
2018-Feb-17 06:00N 33°57' E 134°57'510.9
2018-Feb-17 05:30N 33°53' E 135°01'610.5
2018-Feb-17 04:57N 33°50' E 135°07'16110.0
2018-Feb-16 12:54N 34°33' E 138°14'1511.1
2018-Feb-16 11:31N 34°34' E 138°33'311.2
2018-Feb-16 11:17N 34°34' E 138°36'610.6
2018-Feb-16 10:40N 34°35' E 138°44'411.2
2018-Feb-16 10:19N 34°35' E 138°49'511.4
2018-Feb-16 09:53N 34°36' E 138°54'411.6
2018-Feb-16 09:30N 34°37' E 138°59'612.1
2018-Feb-16 08:58N 34°42' E 139°05'611.1
2018-Feb-16 08:28N 34°45' E 139°11'610.8
2018-Feb-16 07:54N 34°49' E 139°16'16 9.7
2018-Feb-16 06:16N 34°58' E 139°32'510.6
2018-Feb-16 05:49N 35°02' E 139°36'411.5
2018-Feb-16 05:29N 35°04' E 139°40'611.9
2018-Feb-16 05:00N 35°08' E 139°45'611.7
2018-Feb-16 04:30N 35°14' E 139°46'611.2
2018-Feb-16 04:00N 35°19' E 139°43'511.0
2018-Feb-16 03:31N 35°24' E 139°43'5 9.5
2018-Feb-16 03:00N 35°29' E 139°43'0 0.3
2018-Feb-16 02:30N 35°29' E 139°43'0 0.0
2018-Feb-16 02:00N 35°29' E 139°43'0 0.0
2018-Feb-16 01:30N 35°29' E 139°43'0 0.0
2018-Feb-16 01:00N 35°29' E 139°43'0 0.0
2018-Feb-16 00:30N 35°29' E 139°43'0 0.0
2018-Feb-16 00:00N 35°29' E 139°43'0 0.0
2018-Feb-15 23:30N 35°29' E 139°43'1 2.1
2018-Feb-15 23:00N 35°30' E 139°44'510.7
2018-Feb-15 22:30N 35°31' E 139°50'0 0.2
2018-Feb-15 22:00N 35°31' E 139°50'0 0.0
2018-Feb-15 21:28N 35°31' E 139°50'0 0.0
2018-Feb-15 21:00N 35°31' E 139°50'0 0.0
2018-Feb-15 20:29N 35°31' E 139°50'0 0.0
2018-Feb-15 20:00N 35°31' E 139°50'0 0.0
2018-Feb-15 19:29N 35°31' E 139°50'0 0.0
2018-Feb-15 19:00N 35°31' E 139°50'0 0.0
2018-Feb-15 18:30N 35°31' E 139°50'0 0.0
2018-Feb-15 18:00N 35°31' E 139°50'0 0.0
2018-Feb-15 17:30N 35°31' E 139°50'0 0.0
2018-Feb-15 17:00N 35°31' E 139°50'0 0.0
2018-Feb-15 16:30N 35°31' E 139°50'0 0.0
2018-Feb-15 15:59N 35°31' E 139°50'0 0.1
2018-Feb-15 15:30N 35°31' E 139°50'0 0.0
2018-Feb-15 15:00N 35°31' E 139°50'0 0.0
2018-Feb-15 14:30N 35°31' E 139°50'0 0.0
2018-Feb-15 14:00N 35°31' E 139°50'0 0.0
2018-Feb-15 13:30N 35°31' E 139°50'0 0.0
2018-Feb-15 12:58N 35°31' E 139°50'0 0.0
2018-Feb-15 12:29N 35°31' E 139°50'0 0.0
2018-Feb-15 12:00N 35°31' E 139°50'0 0.0
2018-Feb-15 11:30N 35°31' E 139°50'0 0.0
2018-Feb-15 11:00N 35°31' E 139°50'0 0.0
2018-Feb-15 10:30N 35°31' E 139°50'0 0.0
2018-Feb-15 10:01N 35°31' E 139°50'0 0.0
2018-Feb-15 09:26N 35°31' E 139°50'0 0.0
2018-Feb-15 08:57N 35°31' E 139°50'0 0.0
2018-Feb-15 08:30N 35°31' E 139°50'0 0.0
2018-Feb-15 08:00N 35°31' E 139°50'0 0.0
2018-Feb-15 07:30N 35°31' E 139°50'0 0.0
2018-Feb-15 06:59N 35°31' E 139°50'0 0.0
2018-Feb-15 06:30N 35°31' E 139°50'0 0.1
2018-Feb-15 06:00N 35°31' E 139°50'510.3
2018-Feb-15 05:30N 35°32' E 139°57'612.1
2018-Feb-15 05:00N 35°33' E 140°04'2 2.9
2018-Feb-15 04:28N 35°32' E 140°06'0 0.0
2018-Feb-15 03:57N 35°32' E 140°06'0 0.0
2018-Feb-15 03:30N 35°32' E 140°06'0 0.0
2018-Feb-15 03:00N 35°32' E 140°06'0 0.0
2018-Feb-15 02:29N 35°32' E 140°06'0 0.0
2018-Feb-15 02:00N 35°32' E 140°06'0 0.0
2018-Feb-15 01:27N 35°32' E 140°06'0 0.0
2018-Feb-15 00:59N 35°32' E 140°06'0 0.0
2018-Feb-15 00:30N 35°32' E 140°06'0 0.0
2018-Feb-14 23:59N 35°32' E 140°06'0 0.0
2018-Feb-14 23:29N 35°32' E 140°06'2 5.3
2018-Feb-14 23:00N 35°34' E 140°03'2 3.3
2018-Feb-14 22:30N 35°33' E 140°01'0 0.0
2018-Feb-14 22:00N 35°33' E 140°01'0 0.1
2018-Feb-14 21:30N 35°33' E 140°01'0 0.0
2018-Feb-14 21:00N 35°33' E 140°01'0 0.0
2018-Feb-14 20:30N 35°33' E 140°01'0 0.0
2018-Feb-14 20:00N 35°33' E 140°01'0 0.0
2018-Feb-14 19:30N 35°33' E 140°01'0 0.0
2018-Feb-14 19:00N 35°33' E 140°01'0 0.0
2018-Feb-14 18:30N 35°33' E 140°01'0 0.0
2018-Feb-14 18:00N 35°33' E 140°01'0 0.0
2018-Feb-14 17:30N 35°33' E 140°01'0 0.0
2018-Feb-14 17:00N 35°33' E 140°01'0 0.0
2018-Feb-14 16:30N 35°33' E 140°01'0 0.0
2018-Feb-14 16:00N 35°33' E 140°01'0 0.0
2018-Feb-14 15:30N 35°33' E 140°01'0 0.0
2018-Feb-14 15:00N 35°33' E 140°01'0 0.0
2018-Feb-14 14:30N 35°33' E 140°01'0 0.0
2018-Feb-14 14:00N 35°33' E 140°01'0 0.0
2018-Feb-14 13:30N 35°33' E 140°01'0 0.0
2018-Feb-14 13:00N 35°33' E 140°01'0 0.0
2018-Feb-14 12:30N 35°33' E 140°01'0 0.0
2018-Feb-14 12:00N 35°33' E 140°01'0 0.0
2018-Feb-14 11:30N 35°33' E 140°01'0 0.0
2018-Feb-14 11:00N 35°33' E 140°01'0 0.0
2018-Feb-14 10:30N 35°33' E 140°01'0 0.0
2018-Feb-14 10:00N 35°33' E 140°01'0 0.0
2018-Feb-14 09:30N 35°33' E 140°01'0 0.0
2018-Feb-14 09:00N 35°33' E 140°01'0 0.0
2018-Feb-14 08:29N 35°33' E 140°01'0 0.0
2018-Feb-14 08:00N 35°33' E 140°01'0 0.0
2018-Feb-14 07:30N 35°33' E 140°01'0 0.0
2018-Feb-14 07:00N 35°33' E 140°01'0 0.0
2018-Feb-14 06:30N 35°33' E 140°01'0 0.0
2018-Feb-14 06:00N 35°33' E 140°01'0 0.0
2018-Feb-14 05:30N 35°33' E 140°01'0 0.0
2018-Feb-14 05:00N 35°33' E 140°01'0 0.0
2018-Feb-14 04:30N 35°33' E 140°01'2 4.2
2018-Feb-14 04:00N 35°34' E 140°03'3 6.3
2018-Feb-14 03:30N 35°35' E 140°07'0 0.0
2018-Feb-14 03:00N 35°35' E 140°07'0 0.0
2018-Feb-14 02:30N 35°35' E 140°07'0 0.0
2018-Feb-14 02:00N 35°35' E 140°07'0 0.0
2018-Feb-14 01:30N 35°35' E 140°07'0 0.0
2018-Feb-14 01:00N 35°35' E 140°07'0 0.0
2018-Feb-14 00:30N 35°35' E 140°07'0 0.0
2018-Feb-13 23:59N 35°35' E 140°07'0 0.0
2018-Feb-13 23:30N 35°35' E 140°07'0 0.0
2018-Feb-13 23:00N 35°35' E 140°07'1 1.6
2018-Feb-13 22:30N 35°35' E 140°06'3 6.4
2018-Feb-13 22:00N 35°34' E 140°02'2 3.2
2018-Feb-13 21:30N 35°33' E 140°01'0 0.0
2018-Feb-13 21:00N 35°33' E 140°01'0 0.0
2018-Feb-13 20:29N 35°33' E 140°01'0 0.0
2018-Feb-13 20:00N 35°33' E 140°01'0 0.0
2018-Feb-13 19:30N 35°33' E 140°01'0 0.1
2018-Feb-13 19:00N 35°33' E 140°01'0 0.0
2018-Feb-13 18:30N 35°33' E 140°01'0 0.0
2018-Feb-13 18:00N 35°33' E 140°01'0 0.0
2018-Feb-13 17:30N 35°33' E 140°01'0 0.0
2018-Feb-13 16:58N 35°33' E 140°01'0 0.0
2018-Feb-13 16:30N 35°33' E 140°01'0 0.0
2018-Feb-13 16:00N 35°33' E 140°01'0 0.0
2018-Feb-13 15:30N 35°33' E 140°01'0 0.0
2018-Feb-13 15:00N 35°33' E 140°01'0 0.0
2018-Feb-13 14:30N 35°33' E 140°01'0 0.0
2018-Feb-13 14:00N 35°33' E 140°01'0 0.1
2018-Feb-13 13:30N 35°33' E 140°01'0 0.1
2018-Feb-13 12:59N 35°33' E 140°01'0 0.1
2018-Feb-13 12:30N 35°33' E 140°01'0 0.1
2018-Feb-13 12:00N 35°33' E 140°01'0 0.1
2018-Feb-13 11:30N 35°33' E 140°01'0 0.0
2018-Feb-13 10:58N 35°33' E 140°01'0 0.0
2018-Feb-13 10:30N 35°33' E 140°01'0 0.0
2018-Feb-13 10:00N 35°33' E 140°01'0 0.0
2018-Feb-13 09:30N 35°33' E 140°01'0 0.2
2018-Feb-13 09:00N 35°33' E 140°01'0 0.1
2018-Feb-13 08:30N 35°33' E 140°01'0 0.0
2018-Feb-13 08:00N 35°33' E 140°01'5 9.5
2018-Feb-13 07:30N 35°35' E 140°06'1 1.0
2018-Feb-13 07:00N 35°35' E 140°07'0 0.0
2018-Feb-13 06:30N 35°35' E 140°07'0 0.0
2018-Feb-13 06:00N 35°35' E 140°07'0 0.0
2018-Feb-13 05:29N 35°35' E 140°07'0 0.0
2018-Feb-13 05:00N 35°35' E 140°07'2 3.5
2018-Feb-13 04:31N 35°35' E 140°05'510.6
2018-Feb-13 04:00N 35°34' E 139°58'611.4
2018-Feb-13 03:30N 35°31' E 139°52'611.5
2018-Feb-13 03:00N 35°30' E 139°45'2 4.1
2018-Feb-13 02:30N 35°29' E 139°43'0 0.0
2018-Feb-13 02:00N 35°29' E 139°43'0 0.0
2018-Feb-13 01:30N 35°29' E 139°43'0 0.0
2018-Feb-13 01:00N 35°29' E 139°43'0 0.0
2018-Feb-13 00:30N 35°29' E 139°43'0 0.0
2018-Feb-13 00:01N 35°29' E 139°43'0 0.0
2018-Feb-12 23:30N 35°29' E 139°43'2 3.1
2018-Feb-12 23:00N 35°30' E 139°45'510.0
2018-Feb-12 22:30N 35°31' E 139°51'0 0.1
2018-Feb-12 22:00N 35°31' E 139°51'0 0.1
2018-Feb-12 21:30N 35°31' E 139°51'0 0.0
2018-Feb-12 21:00N 35°31' E 139°51'0 0.1
2018-Feb-12 20:30N 35°31' E 139°51'0 0.0
2018-Feb-12 19:59N 35°31' E 139°51'0 0.1
2018-Feb-12 19:30N 35°31' E 139°51'0 0.0
2018-Feb-12 19:00N 35°31' E 139°51'0 0.0
2018-Feb-12 18:30N 35°31' E 139°51'0 0.0
2018-Feb-12 18:00N 35°31' E 139°51'0 0.0
2018-Feb-12 17:30N 35°31' E 139°51'0 0.0
2018-Feb-12 16:59N 35°31' E 139°51'0 0.0
2018-Feb-12 16:27N 35°31' E 139°51'0 0.0
2018-Feb-12 15:59N 35°31' E 139°51'0 0.0
2018-Feb-12 15:28N 35°31' E 139°51'0 0.0
2018-Feb-12 15:00N 35°31' E 139°51'0 0.0
2018-Feb-12 14:30N 35°31' E 139°51'0 0.0
2018-Feb-12 14:00N 35°31' E 139°51'0 0.0
2018-Feb-12 13:29N 35°31' E 139°51'0 0.0
2018-Feb-12 13:00N 35°31' E 139°51'0 0.0
2018-Feb-12 12:28N 35°31' E 139°51'0 0.1
2018-Feb-12 12:00N 35°31' E 139°51'0 0.0
2018-Feb-12 11:30N 35°31' E 139°51'0 0.0
2018-Feb-12 11:00N 35°31' E 139°51'0 0.0
2018-Feb-12 10:30N 35°31' E 139°51'0 0.0
2018-Feb-12 10:00N 35°31' E 139°51'0 0.0
2018-Feb-12 09:30N 35°31' E 139°51'0 0.0
2018-Feb-12 08:59N 35°31' E 139°51'0 0.0
2018-Feb-12 08:30N 35°31' E 139°51'0 0.0
2018-Feb-12 08:00N 35°31' E 139°51'0 0.0
2018-Feb-12 07:30N 35°31' E 139°51'0 0.0
2018-Feb-12 07:00N 35°31' E 139°51'0 0.0
2018-Feb-12 06:30N 35°31' E 139°51'0 0.0
2018-Feb-12 06:00N 35°31' E 139°51'0 0.0
2018-Feb-12 05:30N 35°31' E 139°51'0 0.0
2018-Feb-12 05:00N 35°31' E 139°51'0 0.0
2018-Feb-12 04:29N 35°31' E 139°51'0 0.0
2018-Feb-12 03:59N 35°31' E 139°51'0 0.0
2018-Feb-12 03:30N 35°31' E 139°51'0 0.0
2018-Feb-12 02:59N 35°31' E 139°51'0 0.0
2018-Feb-12 02:30N 35°31' E 139°51'0 0.0
2018-Feb-12 02:00N 35°31' E 139°51'0 0.0
2018-Feb-12 01:30N 35°31' E 139°51'0 0.0
2018-Feb-12 00:58N 35°31' E 139°51'0 0.0
2018-Feb-12 00:30N 35°31' E 139°51'0 0.0
2018-Feb-12 00:00N 35°31' E 139°51'0 0.0
2018-Feb-11 23:29N 35°31' E 139°51'0 0.0
2018-Feb-11 23:00N 35°31' E 139°51'0 0.0
2018-Feb-11 22:30N 35°31' E 139°51'0 0.0
2018-Feb-11 22:00N 35°31' E 139°51'0 0.0
2018-Feb-11 21:24N 35°31' E 139°51'0 0.1
2018-Feb-11 21:00N 35°31' E 139°51'0 0.1
2018-Feb-11 20:30N 35°31' E 139°51'0 0.1
2018-Feb-11 20:00N 35°31' E 139°51'0 0.0
2018-Feb-11 19:30N 35°31' E 139°51'0 0.0
2018-Feb-11 19:00N 35°31' E 139°51'0 0.0
2018-Feb-11 18:30N 35°31' E 139°51'0 0.0
2018-Feb-11 17:57N 35°31' E 139°51'0 0.0
2018-Feb-11 17:30N 35°31' E 139°51'0 0.0
2018-Feb-11 17:01N 35°31' E 139°51'0 0.0
2018-Feb-11 16:30N 35°31' E 139°51'0 0.0
2018-Feb-11 15:56N 35°31' E 139°51'0 0.0
2018-Feb-11 15:30N 35°31' E 139°51'0 0.0
2018-Feb-11 15:00N 35°31' E 139°51'0 0.0
2018-Feb-11 14:30N 35°31' E 139°51'0 0.0
2018-Feb-11 13:58N 35°31' E 139°51'0 0.0
2018-Feb-11 13:23N 35°31' E 139°51'0 0.0
2018-Feb-11 12:57N 35°31' E 139°51'0 0.0
2018-Feb-11 12:25N 35°31' E 139°51'0 0.0
2018-Feb-11 11:54N 35°31' E 139°51'0 0.0
2018-Feb-11 11:30N 35°31' E 139°51'0 0.0
2018-Feb-11 10:59N 35°31' E 139°51'0 0.0
2018-Feb-11 10:27N 35°31' E 139°51'0 0.0
2018-Feb-11 10:00N 35°31' E 139°51'0 0.0
2018-Feb-11 09:30N 35°31' E 139°51'0 0.0
2018-Feb-11 09:00N 35°31' E 139°51'0 0.2
2018-Feb-11 08:30N 35°31' E 139°51'0 0.0
2018-Feb-11 08:01N 35°31' E 139°51'0 0.0
2018-Feb-11 07:30N 35°31' E 139°51'0 0.0
2018-Feb-11 07:00N 35°31' E 139°51'0 0.0
2018-Feb-11 06:30N 35°31' E 139°51'0 0.8
2018-Feb-11 06:00N 35°31' E 139°51'611.7
2018-Feb-11 05:30N 35°32' E 139°58'611.1
2018-Feb-11 05:00N 35°33' E 140°05'1 1.3
2018-Feb-11 04:28N 35°32' E 140°06'0 0.0
2018-Feb-11 01:36N 35°32' E 140°06'0 0.0
2018-Feb-11 01:30N 35°32' E 140°06'0 0.3
2018-Feb-11 01:00N 35°32' E 140°05'3 5.5
2018-Feb-11 00:29N 35°34' E 140°02'1 3.0
2018-Feb-11 00:00N 35°33' E 140°01'0 0.0
2018-Feb-10 23:30N 35°33' E 140°01'0 0.0
2018-Feb-10 23:00N 35°33' E 140°01'0 0.0
2018-Feb-10 22:30N 35°33' E 140°01'0 0.0
2018-Feb-10 22:00N 35°33' E 140°01'0 0.0
2018-Feb-10 21:30N 35°33' E 140°01'0 0.0
2018-Feb-10 21:00N 35°33' E 140°01'0 0.0
2018-Feb-10 20:30N 35°33' E 140°01'0 0.0
2018-Feb-10 20:00N 35°33' E 140°01'0 0.0
2018-Feb-10 19:30N 35°33' E 140°01'0 0.1
2018-Feb-10 19:00N 35°33' E 140°01'0 0.1
2018-Feb-10 18:30N 35°33' E 140°01'0 0.1
2018-Feb-10 18:00N 35°33' E 140°01'0 0.0
2018-Feb-10 17:30N 35°33' E 140°01'0 0.0
2018-Feb-10 17:00N 35°33' E 140°01'0 0.0
2018-Feb-10 16:30N 35°33' E 140°01'0 0.0
2018-Feb-10 16:00N 35°33' E 140°01'0 0.0
2018-Feb-10 15:30N 35°33' E 140°01'0 0.0
2018-Feb-10 15:00N 35°33' E 140°01'0 0.0
2018-Feb-10 14:30N 35°33' E 140°01'0 0.0
2018-Feb-10 14:00N 35°33' E 140°01'0 0.0
2018-Feb-10 13:30N 35°33' E 140°01'0 0.0
2018-Feb-10 13:00N 35°33' E 140°01'0 0.0
2018-Feb-10 12:30N 35°33' E 140°01'0 0.0
2018-Feb-10 12:00N 35°33' E 140°01'0 0.0
2018-Feb-10 11:30N 35°33' E 140°01'0 0.0
2018-Feb-10 11:00N 35°33' E 140°01'0 0.0
2018-Feb-10 10:30N 35°33' E 140°01'0 0.0
2018-Feb-10 10:00N 35°33' E 140°01'0 0.0
2018-Feb-10 09:30N 35°33' E 140°01'0 0.0
2018-Feb-10 08:59N 35°33' E 140°01'0 0.0
2018-Feb-10 08:30N 35°33' E 140°01'1 2.5
2018-Feb-10 08:00N 35°34' E 140°02'4 8.1
2018-Feb-10 07:30N 35°35' E 140°07'0 0.0
2018-Feb-10 07:00N 35°35' E 140°07'0 0.0
2018-Feb-10 06:30N 35°35' E 140°07'0 0.0
2018-Feb-10 06:00N 35°35' E 140°07'0 0.0
2018-Feb-10 05:30N 35°35' E 140°07'0 0.0
2018-Feb-10 04:59N 35°35' E 140°07'0 0.0
2018-Feb-10 04:30N 35°35' E 140°07'2 4.1
2018-Feb-10 04:00N 35°35' E 140°04'3 5.8
2018-Feb-10 03:30N 35°32' E 140°05'0 0.0
2018-Feb-10 02:12N 35°32' E 140°06'0 0.0
2018-Feb-10 01:44N 35°32' E 140°06'0 0.0
2018-Feb-10 01:26N 35°32' E 140°06'0 0.0
2018-Feb-10 00:40N 35°32' E 140°06'0 0.0
2018-Feb-09 23:41N 35°32' E 140°06'0 0.0
2018-Feb-09 23:30N 35°32' E 140°06'0 0.0
2018-Feb-09 22:48N 35°32' E 140°06'0 0.1
2018-Feb-09 22:19N 35°32' E 140°05'2 6.8
2018-Feb-09 22:00N 35°33' E 140°03'2 3.9
2018-Feb-09 21:30N 35°33' E 140°01'0 0.0
2018-Feb-09 17:30N 35°33' E 140°01'0 0.0
2018-Feb-09 16:30N 35°33' E 140°01'0 0.0
2018-Feb-09 15:30N 35°33' E 140°01'0 0.0
2018-Feb-09 14:30N 35°33' E 140°01'0 0.0
2018-Feb-09 14:00N 35°33' E 140°01'0 0.0
2018-Feb-09 13:30N 35°33' E 140°01'0 0.0
2018-Feb-09 13:00N 35°33' E 140°01'0 0.0
2018-Feb-09 12:30N 35°33' E 140°01'0 0.0
2018-Feb-09 11:30N 35°33' E 140°01'  

Dump ship's entire track history